Bellevue, Wisconsin
Current Conditions -  °F | °C
As of 6:19 AM on Sunday 23 Nov 2014 (Local Time) from KGRB Reporting Station
Haze Haze  
Wind Chill: 43°   Ceiling: 600
Heat Index: 47°   Visibility: 3mi
Dew Point: 46°   Wind: 8mph
Humidity: 97%   Direction: 190°S
Pressure: 29.65"   Gusts: NA
Location:  44.4827°N, 87.887°W
Report Text: KGRB 231219Z 19007KT 3SM BR OVC006 08/08 A2965 RMK AO2 T00830078
Loading
Personal Weather Stations






























Interactive Weather Map New forecast layout! Learn more

10-Day Weather Forecast

Advertisements
Track Severe Weather on mobile